Time;durP1;ratioP1;P1;durP2;ratioP2;P2;SDS_P1;SDS_P2;PMS_P1;PMS_P2;Temp;Humidity;BMP_temperature;BMP_pressure;BME280_temperature;BME280_humidity;BME280_pressure;Samples;Min_cycle;Max_cycle;Signal;HPM_P1;HPM_P2
2021/06/04 00:00:19;;;;;;;18.52;2.28;;;;;;;15.67;93.67;98915.13;5064802;28;20328;-62
2021/06/04 00:02:46;;;;;;;2.42;2.22;;;;;;;15.69;93.56;98908.81;5064323;28;20028;-62
2021/06/04 00:05:15;;;;;;;2.40;2.20;;;;;;;15.72;93.72;98906.06;5063317;28;20083;-62
2021/06/04 00:07:41;;;;;;;2.00;1.90;;;;;;;15.72;93.34;98908.72;5064762;28;20213;-62
2021/06/04 00:10:14;;;;;;;2.95;1.88;;;;;;;15.70;93.19;98907.03;5045188;28;20088;-62
2021/06/04 00:12:40;;;;;;;1.88;1.77;;;;;;;15.59;93.11;98906.53;5045156;28;20335;-62
2021/06/04 00:15:12;;;;;;;2.22;1.98;;;;;;;15.67;93.58;98904.50;5046232;28;20021;-62
2021/06/04 00:17:37;;;;;;;2.40;2.20;;;;;;;15.68;93.58;98901.78;5045047;28;20029;-62
2021/06/04 00:20:07;;;;;;;3.65;2.13;;;;;;;15.71;93.65;98893.72;5045068;28;20032;-62
2021/06/04 00:22:33;;;;;;;2.40;1.80;;;;;;;15.54;92.91;98890.81;5064328;28;20027;-62
2021/06/04 00:25:00;;;;;;;1.80;1.70;;;;;;;15.54;92.99;98892.59;5052689;28;20025;-62
2021/06/04 00:27:25;;;;;;;4.60;1.95;;;;;;;15.59;93.20;98896.81;5044770;28;20048;-62
2021/06/04 00:29:51;;;;;;;5.00;2.17;;;;;;;15.63;93.12;98887.81;5044804;28;20327;-62
2021/06/04 00:32:19;;;;;;;11.90;2.78;;;;;;;15.61;93.27;98900.28;5044775;28;20017;-62
2021/06/04 00:34:45;;;;;;;14.48;3.65;;;;;;;15.70;93.93;98894.66;5055924;28;20020;-62
2021/06/04 00:37:11;;;;;;;10.13;3.80;;;;;;;15.70;94.02;98897.31;5064083;28;20017;-62
2021/06/04 00:39:38;;;;;;;4.43;4.03;;;;;;;15.77;94.36;98903.25;5054598;28;20245;-62
2021/06/04 00:42:18;;;;;;;13.13;4.32;;;;;;;15.78;94.38;98895.22;5044581;28;20063;-62
2021/06/04 00:44:45;;;;;;;2.58;2.10;;;;;;;15.63;93.68;98898.41;5045648;28;20100;-62
2021/06/04 00:47:12;;;;;;;3.95;2.33;;;;;;;15.56;93.50;98891.59;5044734;28;20025;-62
2021/06/04 00:49:38;;;;;;;3.65;2.50;;;;;;;15.52;93.44;98895.28;5044460;28;20029;-62
2021/06/04 00:52:12;;;;;;;4.25;2.67;;;;;;;15.58;93.64;98888.91;5044340;28;20089;-62
2021/06/04 00:54:39;;;;;;;7.30;2.78;;;;;;;15.51;93.68;98892.69;5055554;28;20021;-62
2021/06/04 00:57:05;;;;;;;3.35;2.80;;;;;;;15.55;93.77;98892.53;5063708;28;20093;-62
2021/06/04 00:59:37;;;;;;;15.35;3.63;;;;;;;15.59;93.88;98896.81;5044684;28;20063;-62
2021/06/04 01:02:08;;;;;;;8.43;3.22;;;;;;;15.63;94.28;98887.81;5058226;28;20017;-62
2021/06/04 01:04:33;;;;;;;9.02;3.08;;;;;;;15.67;93.85;98891.22;5054689;28;20028;-62
2021/06/04 01:07:20;;;;;;;16.92;3.53;;;;;;;15.69;94.15;98895.56;5063400;28;20074;-62
2021/06/04 01:10:16;;;;;;;31.65;3.42;;;;;;;15.61;93.85;98900.28;5063592;28;20030;-62
2021/06/04 01:13:05;;;;;;;32.55;3.80;;;;;;;15.69;94.55;98902.66;5058649;28;20371;-62
2021/06/04 01:15:40;;;;;;;24.98;3.03;;;;;;;15.52;93.63;98895.28;5055324;28;20020;-62
2021/06/04 01:18:16;;;;;;;114.32;4.70;;;;;;;15.40;93.61;98903.66;5063432;28;20088;-62
2021/06/04 01:20:51;;;;;;;166.05;8.30;;;;;;;15.40;94.69;98901.00;5046966;28;20017;-62
2021/06/04 01:23:44;;;;;;;141.43;6.15;;;;;;;15.42;94.53;98915.09;5050859;28;20021;-62
2021/06/04 01:26:25;;;;;;;205.23;6.75;;;;;;;15.46;94.53;98913.19;5062791;28;20072;-62
2021/06/04 01:28:55;;;;;;;11.20;2.55;;;;;;;15.53;94.54;98923.53;5063336;28;20029;-62
2021/06/04 01:31:27;;;;;;;38.85;4.05;;;;;;;15.53;94.92;98928.00;5061990;28;20028;-62
2021/06/04 01:34:04;;;;;;;91.15;4.65;;;;;;;15.48;94.27;98930.81;5057705;28;20324;-62
2021/06/04 01:36:39;;;;;;;7.47;2.72;;;;;;;15.47;94.55;98929.06;5052347;28;20328;-62
2021/06/04 01:39:13;;;;;;;17.13;2.28;;;;;;;15.51;94.24;98930.72;5060026;28;20363;-62
2021/06/04 01:41:41;;;;;;;8.35;2.40;;;;;;;15.52;93.93;98921.81;5046107;28;20021;-62
2021/06/04 01:44:28;;;;;;;13.45;3.15;;;;;;;15.51;93.64;98917.44;5063065;28;20032;-62
2021/06/04 01:47:01;;;;;;;19.33;2.60;;;;;;;15.46;93.46;98919.38;5050671;28;20033;-62
2021/06/04 01:49:31;;;;;;;22.67;2.55;;;;;;;15.41;93.50;98910.69;5044042;28;20269;-62
2021/06/04 01:52:19;;;;;;;7.05;2.20;;;;;;;15.35;93.35;98902.94;5043745;28;20025;-62
2021/06/04 01:54:57;;;;;;;25.02;2.95;;;;;;;15.32;93.43;98908.34;5052650;28;20062;-62
2021/06/04 01:57:33;;;;;;;12.32;2.70;;;;;;;15.28;93.56;98912.00;5048963;28;20080;-62
2021/06/04 02:00:00;;;;;;;3.95;1.88;;;;;;;15.31;93.52;98909.25;5062368;28;20223;-62
2021/06/04 02:02:33;;;;;;;7.43;2.05;;;;;;;15.26;93.45;98919.16;5063013;28;20083;-62
2021/06/04 02:04:59;;;;;;;4.50;2.33;;;;;;;15.30;93.63;98910.16;5062746;28;20363;-62
2021/06/04 02:07:28;;;;;;;2.60;2.20;;;;;;;15.23;93.11;98906.84;5048681;28;20025;-62
2021/06/04 02:09:55;;;;;;;5.55;2.28;;;;;;;15.22;93.16;98912.19;5043588;28;20324;-62
2021/06/04 02:12:22;;;;;;;7.18;2.13;;;;;;;15.15;93.24;98910.66;5047329;28;20028;-62
2021/06/04 02:14:56;;;;;;;15.00;2.53;;;;;;;15.07;93.17;98902.13;5047634;28;20084;-62
2021/06/04 02:17:33;;;;;;;5.47;2.13;;;;;;;15.10;93.26;98904.69;5054420;28;20067;-62
2021/06/04 02:20:04;;;;;;;14.85;2.38;;;;;;;15.03;92.89;98904.00;5063649;28;20020;-62
2021/06/04 02:22:52;;;;;;;6.88;1.80;;;;;;;15.11;93.63;98898.44;5066756;28;20029;-62
2021/06/04 02:25:36;;;;;;;5.22;2.10;;;;;;;15.16;93.54;98899.19;5066383;28;20080;-62
2021/06/04 02:28:13;;;;;;;19.52;2.30;;;;;;;15.07;93.35;98899.47;5065277;28;20029;-62
2021/06/04 02:30:54;;;;;;;36.22;2.30;;;;;;;15.06;93.53;98905.66;5054992;28;20021;-62
2021/06/04 02:33:29;;;;;;;19.92;1.88;;;;;;;15.05;93.44;98911.91;5045973;28;20021;-62
2021/06/04 02:35:59;;;;;;;13.77;1.67;;;;;;;15.06;93.25;98914.50;5046942;28;20032;-62
2021/06/04 02:38:39;;;;;;;12.43;2.83;;;;;;;15.13;93.21;98917.84;5046900;28;20221;-62
2021/06/04 02:41:15;;;;;;;28.10;2.65;;;;;;;15.04;92.81;98915.47;5046804;28;20312;-62
2021/06/04 02:43:45;;;;;;;18.63;1.60;;;;;;;15.06;93.13;98916.28;5046729;28;20036;-62
2021/06/04 02:46:21;;;;;;;35.42;2.28;;;;;;;14.89;92.75;98915.97;5046791;28;20062;-62
2021/06/04 02:48:48;;;;;;;91.03;3.40;;;;;;;14.81;93.56;98916.19;5046697;28;20033;-62
2021/06/04 02:51:43;;;;;;;6.07;2.17;;;;;;;14.93;93.52;98914.94;5046873;28;20084;-62
2021/06/04 02:54:13;;;;;;;24.88;3.03;;;;;;;14.94;93.52;98911.41;5047089;28;20022;-62
2021/06/04 02:56:45;;;;;;;6.22;2.53;;;;;;;14.98;93.77;98918.31;5050945;28;20032;-62
2021/06/04 02:59:33;;;;;;;6.97;2.45;;;;;;;14.98;93.60;98921.84;5066517;28;20339;-62
2021/06/04 03:02:05;;;;;;;4.35;2.35;;;;;;;15.07;93.94;98924.19;5066408;28;20021;-62
2021/06/04 03:04:35;;;;;;;;;;;;;;;15.03;93.81;98922.56;5066559;28;20092;-62
2021/06/04 03:07:06;;;;;;;7.88;2.50;;;;;;;15.01;93.84;98918.22;5066328;28;19905;-62
2021/06/04 03:09:36;;;;;;;2.65;2.30;;;;;;;15.04;93.76;98923.44;5066368;28;20025;-62
2021/06/04 03:12:11;;;;;;;166.43;7.63;;;;;;;15.00;93.45;98921.81;5066182;28;20041;-62
2021/06/04 03:14:37;;;;;;;11.80;2.88;;;;;;;14.95;93.91;98911.34;5049288;28;20041;-62
2021/06/04 03:17:14;;;;;;;3.33;2.50;;;;;;;14.97;93.71;98916.59;5046248;28;20089;-62
2021/06/04 03:19:39;;;;;;;5.00;2.70;;;;;;;15.00;93.88;98922.66;5047214;28;20088;-62
2021/06/04 03:22:28;;;;;;;4.43;2.05;;;;;;;15.07;93.84;98921.53;5045739;28;20032;-62
2021/06/04 03:24:55;;;;;;;8.90;1.98;;;;;;;15.09;93.90;98921.47;5046021;28;20240;-62
2021/06/04 03:27:22;;;;;;;2.15;2.00;;;;;;;15.10;93.88;98933.84;5045923;28;20045;-62
2021/06/04 03:29:49;;;;;;;3.00;2.25;;;;;;;15.11;93.43;98919.66;5045936;28;20088;-62
2021/06/04 03:32:16;;;;;;;3.17;2.03;;;;;;;15.00;93.28;98917.34;5045904;28;20025;-62
2021/06/04 03:34:43;;;;;;;2.25;2.03;;;;;;;15.05;93.26;98919.84;5045818;28;20025;-62
2021/06/04 03:37:11;;;;;;;2.42;2.22;;;;;;;15.07;93.58;98918.88;5045738;28;20021;-62
2021/06/04 03:39:40;;;;;;;6.03;2.35;;;;;;;15.12;93.71;98926.69;5045747;28;20021;-62
2021/06/04 03:42:09;;;;;;;2.20;2.00;;;;;;;15.18;93.40;98926.47;5045692;28;20035;-62
2021/06/04 03:44:37;;;;;;;2.85;2.10;;;;;;;15.23;93.29;98933.38;5045565;28;20194;-62
2021/06/04 03:47:04;;;;;;;3.35;2.10;;;;;;;15.30;93.40;98947.31;5045595;28;20096;-62
2021/06/04 03:49:30;;;;;;;1.70;1.60;;;;;;;15.37;93.07;98940.91;5046546;28;20013;-62
2021/06/04 03:51:57;;;;;;;2.15;1.95;;;;;;;15.38;93.08;98940.00;5045510;28;20027;-62
2021/06/04 03:54:28;;;;;;;1.95;1.80;;;;;;;15.34;92.83;98938.31;5045537;28;20014;-62
2021/06/04 03:56:54;;;;;;;2.20;2.00;;;;;;;15.12;93.14;98935.50;5050461;28;20020;-62
2021/06/04 03:59:20;;;;;;;6.18;2.40;;;;;;;15.11;93.45;98935.56;5063241;28;20088;-62
2021/06/04 04:01:54;;;;;;;2.42;2.17;;;;;;;15.16;93.58;98933.66;5063462;28;20025;-62
2021/06/04 04:04:20;;;;;;;2.50;2.28;;;;;;;15.26;93.98;98942.16;5064874;28;20013;-62
2021/06/04 04:06:46;;;;;;;3.03;2.47;;;;;;;15.30;93.87;98944.66;5064458;28;20031;-62
2021/06/04 04:09:11;;;;;;;3.67;2.00;;;;;;;15.31;93.49;98938.41;5051331;28;20016;-62
2021/06/04 04:11:39;;;;;;;4.05;2.03;;;;;;;15.35;93.53;98934.78;5045213;28;20086;-62
2021/06/04 04:14:05;;;;;;;2.08;1.90;;;;;;;15.42;93.42;98931.00;5045397;28;20316;-62
2021/06/04 04:16:31;;;;;;;2.15;1.85;;;;;;;15.48;93.16;98941.44;5045131;28;20059;-62
2021/06/04 04:18:56;;;;;;;3.47;2.03;;;;;;;15.51;93.18;98941.31;5056004;28;20021;-62
2021/06/04 04:21:22;;;;;;;2.03;1.92;;;;;;;15.59;92.99;98933.94;5055908;28;20128;-62
2021/06/04 04:23:55;;;;;;;1.60;1.50;;;;;;;15.63;92.84;98940.03;5048056;28;20063;-62
2021/06/04 04:26:28;;;;;;;5.32;1.88;;;;;;;15.67;92.57;98942.53;5064275;28;20382;-62
2021/06/04 04:28:54;;;;;;;2.58;1.90;;;;;;;15.58;92.69;98931.34;5056013;28;20017;-62
2021/06/04 04:31:30;;;;;;;2.63;2.42;;;;;;;15.63;92.96;98938.22;5064216;28;20069;-62
2021/06/04 04:33:57;;;;;;;3.63;2.15;;;;;;;15.68;93.29;98938.94;5058602;28;20048;-62
2021/06/04 04:36:27;;;;;;;2.15;1.95;;;;;;;15.81;93.13;98950.84;5051274;28;20309;-62
2021/06/04 04:38:52;;;;;;;2.47;1.90;;;;;;;15.89;93.12;98951.47;5055643;28;20128;-62
2021/06/04 04:41:18;;;;;;;2.28;1.80;;;;;;;15.96;93.09;98955.63;5063749;28;20035;-62
2021/06/04 04:43:46;;;;;;;2.30;2.10;;;;;;;15.96;93.16;98955.63;5064425;28;20029;-62
2021/06/04 04:46:14;;;;;;;5.90;2.53;;;;;;;15.95;93.08;98948.56;5064448;28;20021;-62
2021/06/04 04:48:39;;;;;;;3.28;2.13;;;;;;;16.00;92.99;98945.75;5064667;28;20020;-62
2021/06/04 04:51:06;;;;;;;2.65;2.45;;;;;;;16.07;92.78;98950.78;5064362;28;20335;-62
2021/06/04 04:53:31;;;;;;;3.63;2.00;;;;;;;16.10;92.64;98948.03;5064329;28;20024;-62
2021/06/04 04:55:57;;;;;;;2.33;2.13;;;;;;;16.18;92.58;98953.94;5064305;28;20091;-62
2021/06/04 04:58:23;;;;;;;2.85;2.08;;;;;;;16.21;92.61;98956.50;5064548;28;20040;-62
2021/06/04 05:00:48;;;;;;;4.97;2.25;;;;;;;16.28;92.84;98952.66;5064204;28;20044;-62
2021/06/04 05:03:16;;;;;;;2.85;2.10;;;;;;;16.28;92.52;98955.34;5064032;28;20024;-62
2021/06/04 05:05:42;;;;;;;2.10;1.98;;;;;;;16.17;92.37;98948.69;5064139;28;20021;-62
2021/06/04 05:08:07;;;;;;;2.35;2.15;;;;;;;16.25;92.38;98958.09;5064107;28;20036;-62
2021/06/04 05:10:34;;;;;;;2.45;1.92;;;;;;;16.31;91.90;98949.91;5064328;28;20058;-62
2021/06/04 05:13:02;;;;;;;1.60;1.50;;;;;;;16.35;91.57;98956.84;5064045;28;20031;-62
2021/06/04 05:15:31;;;;;;;3.67;1.83;;;;;;;16.38;91.47;98953.19;5064005;28;20092;-62
2021/06/04 05:17:57;;;;;;;4.22;2.00;;;;;;;16.33;90.99;98952.50;5064030;28;20027;-62
2021/06/04 05:20:23;;;;;;;3.40;2.15;;;;;;;16.32;91.68;98959.59;5063948;28;20045;-62
2021/06/04 05:22:49;;;;;;;3.95;2.08;;;;;;;16.34;91.66;98957.75;5063809;28;20048;-62
2021/06/04 05:25:20;;;;;;;5.25;2.20;;;;;;;16.41;91.58;98966.34;5063894;28;20084;-62
2021/06/04 05:27:46;;;;;;;1.92;1.83;;;;;;;16.46;91.26;98962.63;5063857;28;20041;-62
2021/06/04 05:30:16;;;;;;;2.40;2.20;;;;;;;16.54;91.29;98965.88;5063832;28;20041;-62
2021/06/04 05:32:41;;;;;;;2.35;2.15;;;;;;;16.81;91.41;98954.16;5063772;28;20021;-62
2021/06/04 05:35:08;;;;;;;2.42;2.22;;;;;;;17.02;90.58;98957.78;5063793;28;20043;-62
2021/06/04 05:37:34;;;;;;;2.58;2.08;;;;;;;17.24;90.03;98953.31;5063749;28;20028;-62
2021/06/04 05:39:59;;;;;;;2.78;1.95;;;;;;;17.48;89.02;98956.78;5063739;28;20244;-62
2021/06/04 05:42:25;;;;;;;3.47;2.10;;;;;;;17.51;88.31;98962.00;5063704;28;20029;-62
2021/06/04 05:44:52;;;;;;;3.67;2.03;;;;;;;17.50;88.35;98965.59;5065155;28;20017;-62
2021/06/04 05:47:18;;;;;;;5.78;2.20;;;;;;;17.50;88.42;98955.84;5067804;28;20021;-62
2021/06/04 05:49:43;;;;;;;3.47;2.03;;;;;;;17.54;87.92;98967.19;5067783;28;20198;-62
2021/06/04 05:52:14;;;;;;;2.20;2.00;;;;;;;17.64;88.73;98964.09;5067708;28;20024;-62
2021/06/04 05:54:42;;;;;;;3.20;2.03;;;;;;;17.67;88.55;98971.06;5067686;28;20025;-62
2021/06/04 05:57:08;;;;;;;2.55;1.80;;;;;;;17.67;89.13;98979.06;5067632;28;20036;-62
2021/06/04 05:59:34;;;;;;;3.28;2.20;;;;;;;17.66;89.14;98977.34;5067634;28;20036;-62
2021/06/04 06:02:00;;;;;;;4.80;2.00;;;;;;;17.64;89.39;98985.38;5067861;28;20024;-62
2021/06/04 06:04:25;;;;;;;2.22;1.92;;;;;;;17.69;89.52;98982.53;5067351;28;20142;-62
2021/06/04 06:06:52;;;;;;;2.45;1.92;;;;;;;17.80;88.63;98980.25;5067466;28;20315;-62
2021/06/04 06:09:19;;;;;;;4.88;2.20;;;;;;;17.91;88.16;98978.03;5067450;28;20028;-62
2021/06/04 06:11:44;;;;;;;3.58;2.08;;;;;;;18.33;86.21;98978.78;5067369;28;20025;-62
2021/06/04 06:14:10;;;;;;;5.22;2.20;;;;;;;18.53;85.44;98984.09;5067330;28;20312;-62
2021/06/04 06:16:37;;;;;;;3.42;2.30;;;;;;;19.65;82.69;98980.44;5067282;28;20236;-62
2021/06/04 06:19:05;;;;;;;3.15;2.45;;;;;;;19.45;82.09;98983.25;5067218;28;20021;-62
2021/06/04 06:21:30;;;;;;;2.60;2.40;;;;;;;19.79;82.34;98985.97;5067244;28;20316;-62
2021/06/04 06:23:56;;;;;;;5.95;2.70;;;;;;;19.96;80.99;98991.31;5067104;28;20123;-62
2021/06/04 06:26:28;;;;;;;4.75;2.40;;;;;;;20.24;79.66;98991.63;5066978;28;20045;-62
2021/06/04 06:28:55;;;;;;;4.28;2.70;;;;;;;20.71;78.63;98992.66;5067095;28;20028;-62
2021/06/04 06:31:24;;;;;;;4.20;2.70;;;;;;;21.30;76.55;98992.88;5067266;28;20050;-62
2021/06/04 06:33:52;;;;;;;3.53;2.88;;;;;;;22.57;72.85;98991.56;5067002;28;20320;-62
2021/06/04 06:36:20;;;;;;;2.63;2.28;;;;;;;23.36;71.54;99002.63;5066933;28;20021;-62
2021/06/04 06:38:48;;;;;;;3.13;2.40;;;;;;;23.85;69.61;99007.34;5066893;28;20021;-62
2021/06/04 06:41:15;;;;;;;3.95;2.67;;;;;;;22.83;71.84;99008.69;5067062;28;20313;-62
2021/06/04 06:43:44;;;;;;;3.70;2.30;;;;;;;22.61;73.59;99003.81;5066604;28;20020;-63
2021/06/04 06:46:10;;;;;;;4.90;2.47;;;;;;;22.25;73.10;99014.09;5066755;28;20016;-63
2021/06/04 06:48:36;;;;;;;4.78;2.55;;;;;;;22.09;75.17;99009.72;5066649;28;20031;-63
2021/06/04 06:51:03;;;;;;;4.45;2.47;;;;;;;22.04;73.75;99015.34;5066632;28;20032;-63
2021/06/04 06:53:29;;;;;;;5.85;2.63;;;;;;;22.27;74.60;99008.63;5066588;28;20013;-63
2021/06/04 06:55:56;;;;;;;2.90;2.50;;;;;;;22.34;73.23;99010.81;5065882;28;20032;-63
2021/06/04 06:58:23;;;;;;;3.10;2.80;;;;;;;22.42;72.01;99008.56;5066433;28;20067;-63
2021/06/04 07:00:50;;;;;;;3.90;2.90;;;;;;;23.05;72.13;99011.75;5066429;28;20096;-63
2021/06/04 07:03:23;;;;;;;6.57;2.75;;;;;;;24.01;68.45;99010.75;5066184;28;20409;-63
2021/06/04 07:05:49;;;;;;;7.72;3.28;;;;;;;24.96;67.68;98998.66;5066654;28;20025;-63
2021/06/04 07:08:15;;;;;;;6.70;2.55;;;;;;;25.90;63.34;99004.22;5066564;28;20044;-63
2021/06/04 07:10:40;;;;;;;4.13;2.70;;;;;;;25.77;60.36;98998.03;5066260;28;20224;-63
2021/06/04 07:13:09;;;;;;;3.50;3.20;;;;;;;26.08;60.62;99005.56;5066184;28;20088;-63
2021/06/04 07:15:35;;;;;;;8.20;3.45;;;;;;;26.25;59.44;99004.25;5066154;28;20067;-63
2021/06/04 07:18:00;;;;;;;5.78;2.80;;;;;;;26.28;57.80;98998.63;5066144;28;20021;-63
2021/06/04 07:20:29;;;;;;;3.80;3.10;;;;;;;26.34;58.50;99003.56;5066099;28;20025;-63
2021/06/04 07:22:56;;;;;;;3.97;3.33;;;;;;;26.76;58.08;99016.44;5065949;28;20075;-63
2021/06/04 07:25:25;;;;;;;4.65;3.33;;;;;;;26.40;59.31;99014.75;5065758;28;20087;-63
2021/06/04 07:27:50;;;;;;;8.68;3.40;;;;;;;27.21;55.66;99012.78;5065922;28;20228;-63
2021/06/04 07:30:22;;;;;;;5.45;3.28;;;;;;;27.24;58.95;99015.28;5065910;28;20031;-63
2021/06/04 07:32:49;;;;;;;10.75;3.88;;;;;;;27.13;56.52;99012.53;5065883;28;20020;-63
2021/06/04 07:35:18;;;;;;;11.63;3.53;;;;;;;26.62;58.79;99012.16;5065855;28;20097;-63
2021/06/04 07:37:44;;;;;;;10.02;4.28;;;;;;;26.75;58.32;99014.72;5065766;28;20017;-63
2021/06/04 07:40:13;;;;;;;7.85;3.40;;;;;;;27.33;56.90;99017.22;5065701;28;20025;-63
2021/06/04 07:42:39;;;;;;;6.10;3.70;;;;;;;27.73;54.01;99021.09;5065632;28;20121;-63
2021/06/04 07:45:07;;;;;;;4.72;3.10;;;;;;;28.04;57.09;99020.28;5065580;28;20017;-63
2021/06/04 07:47:33;;;;;;;5.70;3.53;;;;;;;28.38;56.57;99021.81;5065616;28;20255;-63
2021/06/04 07:49:59;;;;;;;5.38;3.22;;;;;;;28.57;54.19;99029.28;5065587;28;20044;-63
2021/06/04 07:52:25;;;;;;;7.60;3.42;;;;;;;29.02;50.34;99020.69;5065496;28;20027;-63
2021/06/04 07:54:51;;;;;;;5.80;3.20;;;;;;;28.82;53.25;99024.31;5065491;28;20017;-63
2021/06/04 07:57:17;;;;;;;5.70;3.33;;;;;;;29.29;52.94;99022.00;5065403;28;20028;-63
2021/06/04 07:59:42;;;;;;;5.25;3.28;;;;;;;28.97;51.51;99028.38;5065403;28;20248;-63
2021/06/04 08:02:08;;;;;;;5.25;2.83;;;;;;;28.91;50.75;99023.50;5065330;28;20256;-63
2021/06/04 08:04:34;;;;;;;3.40;2.78;;;;;;;29.16;48.54;99028.50;5065103;28;20029;-63
2021/06/04 08:06:59;;;;;;;2.97;2.35;;;;;;;29.33;50.24;99027.03;5065191;28;20029;-63
2021/06/04 08:09:25;;;;;;;6.10;3.00;;;;;;;29.15;52.75;99015.97;5064066;28;20189;-63
2021/06/04 08:11:57;;;;;;;6.28;3.10;;;;;;;29.63;49.26;99009.84;5065183;28;20016;-63
2021/06/04 08:14:25;;;;;;;5.97;2.53;;;;;;;29.41;47.87;99005.47;5065052;28;20020;-63
2021/06/04 08:16:50;;;;;;;6.57;3.10;;;;;;;29.65;48.50;99014.16;5065029;28;20039;-63
2021/06/04 08:19:17;;;;;;;5.28;3.20;;;;;;;29.69;48.34;99014.72;5065254;28;20283;-63
2021/06/04 08:21:47;;;;;;;6.15;2.90;;;;;;;30.06;51.14;99007.63;5064951;28;20043;-63
2021/06/04 08:24:14;;;;;;;6.00;2.90;;;;;;;30.07;46.47;99009.34;5065061;28;20081;-63
2021/06/04 08:26:41;;;;;;;3.25;2.63;;;;;;;30.35;48.08;99013.94;5064657;28;20052;-63
2021/06/04 08:29:08;;;;;;;6.30;2.90;;;;;;;29.67;50.87;99001.28;5064759;28;20228;-63
2021/06/04 08:31:34;;;;;;;6.65;3.25;;;;;;;30.39;47.86;99005.38;5064985;28;20025;-63
2021/06/04 08:33:59;;;;;;;4.13;3.00;;;;;;;29.94;47.07;99001.50;5064718;28;20027;-63
2021/06/04 08:36:31;;;;;;;4.93;3.10;;;;;;;30.48;48.65;98999.06;5064658;28;20324;-63
2021/06/04 08:38:59;;;;;;;6.50;3.20;;;;;;;30.31;48.91;98990.81;5064922;28;20021;-63
2021/06/04 08:42:00;;;;;;;6.00;3.08;;;;;;;29.78;49.01;99003.91;5064500;28;20017;-63
2021/06/04 08:44:28;;;;;;;;;;;;;;;30.68;46.22;98995.31;5064895;28;20033;-63
2021/06/04 08:47:06;;;;;;;3.60;2.70;;;;;;;31.23;46.77;98990.00;5064467;28;19905;-63
2021/06/04 08:49:34;;;;;;;5.45;2.78;;;;;;;31.46;45.75;98992.22;5064511;28;20021;-63
2021/06/04 08:52:21;;;;;;;3.83;2.40;;;;;;;31.44;45.69;98987.94;5064390;28;20025;-63
2021/06/04 08:55:05;;;;;;;5.65;2.40;;;;;;;31.61;44.90;98990.69;5064374;28;20017;-63
2021/06/04 08:57:38;;;;;;;3.90;2.38;;;;;;;32.06;43.65;98997.00;5064322;28;20025;-63
2021/06/04 09:00:11;;;;;;;4.38;2.22;;;;;;;32.17;41.38;98990.47;5064268;28;20374;-63
2021/06/04 09:02:44;;;;;;;6.32;2.40;;;;;;;31.84;41.28;98991.13;5064140;28;20083;-63
2021/06/04 09:05:16;;;;;;;5.50;2.58;;;;;;;32.46;40.79;98994.66;5064169;28;20032;-63
2021/06/04 09:07:46;;;;;;;5.07;2.60;;;;;;;32.42;40.24;98987.81;5064219;28;20070;-63
2021/06/04 09:10:36;;;;;;;8.45;2.58;;;;;;;32.65;40.75;98982.72;5064119;28;20025;-63
2021/06/04 09:13:04;;;;;;;5.40;2.38;;;;;;;32.15;39.03;98985.16;5064151;28;20390;-63
2021/06/04 09:15:34;;;;;;;10.30;2.53;;;;;;;32.23;40.27;98982.50;5064036;28;20043;-63
2021/06/04 09:18:14;;;;;;;7.93;2.42;;;;;;;32.42;39.63;98985.09;5064289;28;20092;-63
2021/06/04 09:20:53;;;;;;;4.85;2.22;;;;;;;32.89;40.60;98982.91;5063659;28;20087;-63
2021/06/04 09:23:25;;;;;;;4.70;2.10;;;;;;;33.13;40.84;98982.19;5063891;28;20035;-63
2021/06/04 09:25:50;;;;;;;5.95;2.30;;;;;;;32.16;40.02;98986.88;5063771;28;20355;-63
2021/06/04 09:28:23;;;;;;;6.95;2.30;;;;;;;31.45;40.82;98979.63;5063894;28;20029;-63
2021/06/04 09:30:55;;;;;;;5.20;2.30;;;;;;;30.51;42.22;98970.75;5063834;28;20045;-63
2021/06/04 09:33:23;;;;;;;;;;;;;;;31.40;44.17;98976.50;5064552;28;20067;-63
2021/06/04 09:35:56;;;;;;;6.20;2.33;;;;;;;31.52;40.17;98980.72;5063813;28;19975;-63
2021/06/04 09:38:47;;;;;;;3.60;2.20;;;;;;;30.88;42.15;98974.41;5063782;28;20048;-63
2021/06/04 09:41:36;;;;;;;4.53;2.23;;;;;;;30.97;42.19;98973.53;5062828;28;20056;-63
2021/06/04 09:44:07;;;;;;;7.93;2.42;;;;;;;31.44;43.37;98977.06;5063803;28;20268;-63
2021/06/04 09:46:53;;;;;;;5.97;2.50;;;;;;;32.12;41.39;98985.47;5063998;28;20081;-63
2021/06/04 09:49:29;;;;;;;4.78;2.63;;;;;;;32.26;40.69;98987.66;5062850;28;20185;-63
2021/06/04 09:52:14;;;;;;;7.05;2.50;;;;;;;32.20;41.48;98987.44;5063942;28;20208;-63
2021/06/04 09:54:39;;;;;;;4.68;2.15;;;;;;;32.77;41.28;98979.56;5063726;28;20031;-63
2021/06/04 09:57:14;;;;;;;10.00;2.22;;;;;;;32.19;39.64;98975.66;5063899;28;20052;-63
2021/06/04 09:59:40;;;;;;;6.05;2.22;;;;;;;31.85;37.13;98977.38;5063928;28;20020;-63
2021/06/04 10:02:38;;;;;;;3.40;2.22;;;;;;;32.08;44.11;98978.63;5063540;28;20016;-63
2021/06/04 10:05:13;;;;;;;6.28;2.35;;;;;;;32.52;39.36;98974.94;5062420;28;20090;-63
2021/06/04 10:07:39;;;;;;;2.88;2.00;;;;;;;32.46;37.80;98978.28;5063833;28;20313;-63
2021/06/04 10:10:24;;;;;;;3.20;2.28;;;;;;;32.47;39.12;98976.44;5063509;28;20021;-63
2021/06/04 10:12:56;;;;;;;5.47;2.03;;;;;;;32.45;40.17;98976.59;5063482;28;20025;-63
2021/06/04 10:15:27;;;;;;;4.15;2.30;;;;;;;32.32;41.69;98969.81;5063454;28;20212;-63
2021/06/04 10:20:24;;;;;;;5.15;2.40;;;;;;;32.91;36.68;98957.19;5063699;28;20131;-63
2021/06/04 10:23:00;;;;;;;4.55;2.20;;;;;;;32.75;37.36;98954.31;5063347;28;20351;-63
2021/06/04 10:25:46;;;;;;;6.03;2.20;;;;;;;32.80;37.73;98949.25;5063152;28;20105;-63
2021/06/04 10:28:39;;;;;;;4.22;2.38;;;;;;;32.10;36.72;98949.34;5047223;28;20021;-63
2021/06/04 10:31:16;;;;;;;3.20;1.90;;;;;;;32.14;38.52;98945.31;5048339;28;20047;-63
2021/06/04 10:33:57;;;;;;;3.35;2.03;;;;;;;32.27;41.19;98943.03;5055647;28;20018;-63
2021/06/04 10:36:26;;;;;;;5.18;2.25;;;;;;;32.59;39.87;98940.56;5061903;28;20021;-63
2021/06/04 10:38:56;;;;;;;5.05;2.30;;;;;;;32.50;40.43;98947.00;5049331;28;20045;-63
2021/06/04 10:41:50;;;;;;;5.00;2.47;;;;;;;32.33;39.94;98945.16;5054814;28;20021;-63
2021/06/04 10:44:41;;;;;;;5.13;2.30;;;;;;;32.50;37.70;98935.25;5059744;28;20033;-63
2021/06/04 10:47:18;;;;;;;7.38;2.28;;;;;;;32.48;37.16;98927.22;5052180;28;20035;-63
2021/06/04 10:50:23;;;;;;;4.07;1.90;;;;;;;32.45;37.84;98926.66;5053548;28;20030;-63
2021/06/04 10:52:59;;;;;;;5.35;2.20;;;;;;;31.77;35.92;98930.13;5054117;28;20059;-63
2021/06/04 10:55:36;;;;;;;5.18;2.20;;;;;;;31.98;39.50;98928.81;5059656;28;20304;-63
2021/06/04 10:58:21;;;;;;;5.28;2.10;;;;;;;32.10;37.49;98926.69;5048120;28;20092;-63
2021/06/04 11:00:56;;;;;;;3.30;2.20;;;;;;;31.87;39.12;98912.72;5049588;28;20025;-63
2021/06/04 11:03:55;;;;;;;9.43;2.28;;;;;;;32.18;38.39;98908.59;5060350;28;20013;-63
2021/06/04 11:06:38;;;;;;;5.32;2.20;;;;;;;32.16;42.07;98898.84;5060345;28;20032;-63
2021/06/04 11:09:20;;;;;;;8.43;2.42;;;;;;;32.10;41.60;98894.88;5058009;28;20017;-63
2021/06/04 11:12:12;;;;;;;8.90;2.28;;;;;;;32.34;40.03;98903.28;5050138;28;20029;-63
2021/06/04 11:14:56;;;;;;;5.63;2.45;;;;;;;32.26;41.06;98903.19;5048255;28;20084;-63
2021/06/04 11:17:31;;;;;;;4.20;2.10;;;;;;;32.22;41.21;98903.66;5047991;28;20021;-63
2021/06/04 11:20:07;;;;;;;5.72;2.28;;;;;;;31.28;43.15;98896.06;5047679;28;20079;-63
2021/06/04 11:22:42;;;;;;;6.13;2.63;;;;;;;30.28;43.60;98887.88;5057774;28;20037;-63
2021/06/04 11:25:27;;;;;;;3.55;2.33;;;;;;;29.47;45.64;98900.97;5054771;28;20259;-63
2021/06/04 11:28:30;;;;;;;8.95;2.70;;;;;;;28.73;46.22;98889.63;5056808;28;20025;-63
2021/06/04 11:30:59;;;;;;;7.53;2.90;;;;;;;28.62;48.55;98888.88;5049380;28;20033;-63
2021/06/04 11:33:29;;;;;;;9.65;2.67;;;;;;;27.96;50.44;98900.97;5049483;28;20022;-63
2021/06/04 11:36:13;;;;;;;8.85;3.40;;;;;;;27.71;50.42;98892.38;5049191;28;20075;-63
2021/06/04 11:38:44;;;;;;;6.18;2.53;;;;;;;27.65;51.89;98899.13;5049332;28;20204;-63
2021/06/04 11:41:12;;;;;;;8.52;2.70;;;;;;;27.25;50.51;98895.34;5049182;28;20243;-63
2021/06/04 11:43:40;;;;;;;10.00;2.53;;;;;;;27.03;52.21;98887.25;5050092;28;20032;-63
2021/06/04 11:46:15;;;;;;;9.77;2.50;;;;;;;26.84;52.30;98884.34;5048079;28;20080;-63
2021/06/04 11:48:53;;;;;;;8.93;2.92;;;;;;;26.85;52.38;98888.75;5048323;28;20029;-63
2021/06/04 11:51:18;;;;;;;5.32;2.78;;;;;;;26.63;55.67;98881.53;5058826;28;20338;-63
2021/06/04 11:53:46;;;;;;;12.35;2.83;;;;;;;26.81;54.15;98882.75;5058660;28;20025;-63